Time,TemperatureF,DewpointF,PressureIn,WindDirection,WindDirectionDegrees,WindSpeedMPH,WindSpeedGustMPH,Humidity,HourlyPrecipIn,Conditions,Clouds,dailyrainin,SoftwareType,DateUTC
2013-05-10 00:00:00,63.9,63.6,29.74,SSW,202,0.0,-999.0,99,-99.99,,,0.00,Acu-Link.com,2013-05-10 05:00:00,
2013-05-10 00:15:00,64.6,64.3,29.75,SSW,202,0.0,-999.0,99,-99.99,,,0.00,Acu-Link.com,2013-05-10 05:15:00,
2013-05-10 00:30:00,64.9,64.7,29.75,South,180,0.0,-999.0,99,-99.99,,,0.00,Acu-Link.com,2013-05-10 05:30:00,
2013-05-10 00:45:00,64.8,64.5,29.74,West,270,0.0,-999.0,99,-99.99,,,0.00,Acu-Link.com,2013-05-10 05:45:00,
2013-05-10 01:01:00,64.9,64.7,29.73,WNW,292,0.0,-999.0,99,-99.99,,,0.00,Acu-Link.com,2013-05-10 06:01:00,
2013-05-10 01:16:00,64.9,64.7,29.72,East,90,0.0,-999.0,99,-99.99,,,0.00,Acu-Link.com,2013-05-10 06:16:00,
2013-05-10 01:31:00,64.6,64.3,29.72,NNW,337,0.0,-999.0,99,-99.99,,,0.00,Acu-Link.com,2013-05-10 06:31:00,
2013-05-10 01:46:00,64.8,64.5,29.71,North,0,0.0,-999.0,99,-99.99,,,0.00,Acu-Link.com,2013-05-10 06:46:00,
2013-05-10 02:01:00,64.4,64.1,29.71,North,0,0.0,-999.0,99,-99.99,,,0.00,Acu-Link.com,2013-05-10 07:01:00,
2013-05-10 02:17:00,64.4,64.1,29.70,South,180,0.0,-999.0,99,-99.99,,,0.00,Acu-Link.com,2013-05-10 07:17:00,
2013-05-10 02:32:00,64.8,64.5,29.70,West,270,0.0,-999.0,99,-99.99,,,0.00,Acu-Link.com,2013-05-10 07:32:00,
2013-05-10 02:47:00,64.8,64.5,29.71,WSW,247,0.0,-999.0,99,-99.99,,,0.00,Acu-Link.com,2013-05-10 07:47:00,
2013-05-10 03:02:00,64.9,64.7,29.69,East,90,0.0,-999.0,99,-99.99,,,0.00,Acu-Link.com,2013-05-10 08:02:00,
2013-05-10 03:17:00,64.9,64.7,29.69,East,90,0.0,-999.0,99,-99.99,,,0.00,Acu-Link.com,2013-05-10 08:17:00,
2013-05-10 03:32:00,64.9,64.7,29.69,West,270,0.0,-999.0,99,-99.99,,,0.00,Acu-Link.com,2013-05-10 08:32:00,
2013-05-10 03:47:00,65.1,64.8,29.69,NNE,22,0.0,-999.0,99,-99.99,,,0.00,Acu-Link.com,2013-05-10 08:47:00,
2013-05-10 04:03:00,64.9,64.7,29.69,North,0,0.0,-999.0,99,-99.99,,,0.00,Acu-Link.com,2013-05-10 09:03:00,
2013-05-10 04:18:00,65.3,65.0,29.69,NW,315,0.0,-999.0,99,-99.99,,,0.00,Acu-Link.com,2013-05-10 09:18:00,
2013-05-10 04:33:00,65.1,64.8,29.71,WNW,292,0.0,-999.0,99,-99.99,,,0.00,Acu-Link.com,2013-05-10 09:33:00,
2013-05-10 04:48:00,65.1,64.8,29.70,NW,315,1.6,-999.0,99,-99.99,,,0.00,Acu-Link.com,2013-05-10 09:48:00,
2013-05-10 05:03:00,65.5,65.2,29.71,ESE,112,0.0,-999.0,99,-99.99,,,0.00,Acu-Link.com,2013-05-10 10:03:00,
2013-05-10 05:18:00,65.8,65.6,29.71,NNE,22,2.7,-999.0,99,-99.99,,,0.00,Acu-Link.com,2013-05-10 10:18:00,
2013-05-10 05:33:00,66.0,65.7,29.74,WNW,292,3.1,-999.0,99,-99.99,,,0.00,Acu-Link.com,2013-05-10 10:33:00,
2013-05-10 05:49:00,65.8,65.6,29.74,WNW,292,1.1,-999.0,99,-99.99,,,0.00,Acu-Link.com,2013-05-10 10:49:00,
2013-05-10 06:04:00,65.7,65.4,29.74,West,270,1.6,-999.0,99,-99.99,,,0.00,Acu-Link.com,2013-05-10 11:04:00,
2013-05-10 06:19:00,65.8,65.6,29.75,NNE,22,2.2,-999.0,99,-99.99,,,0.00,Acu-Link.com,2013-05-10 11:19:00,
2013-05-10 06:34:00,65.7,65.4,29.75,West,270,1.6,-999.0,99,-99.99,,,0.00,Acu-Link.com,2013-05-10 11:34:00,
2013-05-10 06:50:00,65.5,65.2,29.75,West,270,0.0,-999.0,99,-99.99,,,0.00,Acu-Link.com,2013-05-10 11:50:00,
2013-05-10 07:05:00,65.3,65.0,29.77,SE,135,0.0,-999.0,99,-99.99,,,0.00,Acu-Link.com,2013-05-10 12:05:00,
2013-05-10 07:20:00,65.3,65.0,29.78,South,180,0.0,-999.0,99,-99.99,,,0.00,Acu-Link.com,2013-05-10 12:20:00,
2013-05-10 07:35:00,65.5,65.2,29.79,NNW,337,0.0,-999.0,99,-99.99,,,0.00,Acu-Link.com,2013-05-10 12:35:00,
2013-05-10 07:50:00,65.8,65.6,29.78,ESE,112,0.0,-999.0,99,-99.99,,,0.00,Acu-Link.com,2013-05-10 12:50:00,
2013-05-10 08:06:00,66.2,65.9,29.78,SSE,157,2.2,-999.0,99,-99.99,,,0.00,Acu-Link.com,2013-05-10 13:06:00,
2013-05-10 08:21:00,66.6,66.3,29.79,WSW,247,0.0,-999.0,99,-99.99,,,0.00,Acu-Link.com,2013-05-10 13:21:00,
2013-05-10 08:36:00,67.1,66.8,29.80,South,180,0.0,-999.0,99,-99.99,,,0.00,Acu-Link.com,2013-05-10 13:36:00,
2013-05-10 08:51:00,67.8,66.3,29.81,South,180,0.0,-999.0,95,-99.99,,,0.00,Acu-Link.com,2013-05-10 13:51:00,
2013-05-10 09:06:00,68.5,66.1,29.82,WNW,292,0.0,-999.0,92,-99.99,,,0.00,Acu-Link.com,2013-05-10 14:06:00,
2013-05-10 09:22:00,68.9,65.8,29.82,SSW,202,0.0,-999.0,90,-99.99,,,0.00,Acu-Link.com,2013-05-10 14:22:00,
2013-05-10 09:37:00,70.3,66.6,29.82,NE,45,0.0,-999.0,88,-99.99,,,0.00,Acu-Link.com,2013-05-10 14:37:00,
2013-05-10 09:52:00,71.2,66.8,29.79,North,0,0.0,-999.0,86,-99.99,,,0.00,Acu-Link.com,2013-05-10 14:52:00,
2013-05-10 10:07:00,71.6,66.2,29.78,NNW,337,3.8,-999.0,83,-99.99,,,0.00,Acu-Link.com,2013-05-10 15:07:00,
2013-05-10 10:22:00,72.1,66.3,29.79,West,270,3.8,-999.0,82,-99.99,,,0.00,Acu-Link.com,2013-05-10 15:22:00,
2013-05-10 10:37:00,72.0,66.2,29.78,NNW,337,3.8,-999.0,82,-99.99,,,0.00,Acu-Link.com,2013-05-10 15:37:00,
2013-05-10 10:53:00,71.8,66.0,29.79,NNE,22,1.6,-999.0,82,-99.99,,,0.00,Acu-Link.com,2013-05-10 15:53:00,
2013-05-10 11:08:00,71.6,65.8,29.80,East,90,2.2,-999.0,82,-99.99,,,0.00,Acu-Link.com,2013-05-10 16:08:00,
2013-05-10 11:23:00,73.0,66.5,29.80,West,270,2.2,-999.0,80,-99.99,,,0.00,Acu-Link.com,2013-05-10 16:23:00,
2013-05-10 11:38:00,73.6,66.3,29.80,NNW,337,3.8,-999.0,78,-99.99,,,0.00,Acu-Link.com,2013-05-10 16:38:00,
2013-05-10 11:53:00,75.7,65.7,29.80,North,0,4.7,-999.0,71,-99.99,,,0.00,Acu-Link.com,2013-05-10 16:53:00,
2013-05-10 12:09:00,74.8,64.4,29.79,NW,315,4.3,-999.0,70,-99.99,,,0.00,Acu-Link.com,2013-05-10 17:09:00,
2013-05-10 12:24:00,76.8,65.9,29.79,WNW,292,2.2,-999.0,69,-99.99,,,0.00,Acu-Link.com,2013-05-10 17:24:00,
2013-05-10 12:39:00,76.8,64.6,29.78,NNE,22,1.6,-999.0,66,-99.99,,,0.00,Acu-Link.com,2013-05-10 17:39:00,
2013-05-10 12:54:00,78.6,65.4,29.78,North,0,3.8,-999.0,64,-99.99,,,0.00,Acu-Link.com,2013-05-10 17:54:00,
2013-05-10 13:09:00,77.2,64.5,29.78,SW,225,2.7,-999.0,65,-99.99,,,0.00,Acu-Link.com,2013-05-10 18:09:00,
2013-05-10 13:25:00,78.1,65.3,29.78,WNW,292,3.8,-999.0,65,-99.99,,,0.00,Acu-Link.com,2013-05-10 18:25:00,
2013-05-10 13:40:00,79.9,64.7,29.77,North,0,3.1,-999.0,60,-99.99,,,0.00,Acu-Link.com,2013-05-10 18:40:00,
2013-05-10 13:55:00,79.7,64.6,29.77,West,270,4.3,-999.0,60,-99.99,,,0.00,Acu-Link.com,2013-05-10 18:55:00,
2013-05-10 14:10:00,79.7,65.0,29.76,WNW,292,5.1,-999.0,61,-99.99,,,0.00,Acu-Link.com,2013-05-10 19:10:00,
2013-05-10 14:26:00,80.1,64.4,29.76,NNE,22,2.7,-999.0,59,-99.99,,,0.00,Acu-Link.com,2013-05-10 19:26:00,
2013-05-10 14:41:00,79.0,63.9,29.76,West,270,3.8,-999.0,60,-99.99,,,0.00,Acu-Link.com,2013-05-10 19:41:00,
2013-05-10 14:56:00,78.8,62.8,29.76,East,90,2.2,-999.0,58,-99.99,,,0.00,Acu-Link.com,2013-05-10 19:56:00,
2013-05-10 15:11:00,79.7,63.6,29.75,NNE,22,2.7,-999.0,58,-99.99,,,0.00,Acu-Link.com,2013-05-10 20:11:00,
2013-05-10 15:26:00,81.7,61.8,29.75,WSW,247,2.7,-999.0,51,-99.99,,,0.00,Acu-Link.com,2013-05-10 20:26:00,
2013-05-10 15:42:00,81.9,63.6,29.75,North,0,3.8,-999.0,54,-99.99,,,0.00,Acu-Link.com,2013-05-10 20:42:00,
2013-05-10 15:57:00,82.0,63.2,29.75,WNW,292,2.7,-999.0,53,-99.99,,,0.00,Acu-Link.com,2013-05-10 20:57:00,
2013-05-10 16:12:00,80.6,61.9,29.75,West,270,3.8,-999.0,53,-99.99,,,0.00,Acu-Link.com,2013-05-10 21:12:00,
2013-05-10 16:27:00,80.2,61.5,29.74,North,0,3.1,-999.0,53,-99.99,,,0.00,Acu-Link.com,2013-05-10 21:27:00,
2013-05-10 16:42:00,80.1,60.3,29.74,North,0,1.6,-999.0,51,-99.99,,,0.00,Acu-Link.com,2013-05-10 21:42:00,
2013-05-10 16:58:00,81.1,61.8,29.74,WSW,247,2.7,-999.0,52,-99.99,,,0.00,Acu-Link.com,2013-05-10 21:58:00,
2013-05-10 17:13:00,80.1,60.8,29.73,NE,45,2.2,-999.0,52,-99.99,,,0.00,Acu-Link.com,2013-05-10 22:13:00,
2013-05-10 17:28:00,80.8,60.9,29.74,West,270,2.7,-999.0,51,-99.99,,,0.00,Acu-Link.com,2013-05-10 22:28:00,
2013-05-10 17:43:00,80.6,60.8,29.74,East,90,2.2,-999.0,51,-99.99,,,0.00,Acu-Link.com,2013-05-10 22:43:00,
2013-05-10 17:58:00,79.7,60.5,29.73,West,270,3.1,-999.0,52,-99.99,,,0.00,Acu-Link.com,2013-05-10 22:58:00,
2013-05-10 18:14:00,79.5,60.3,29.73,North,0,3.1,-999.0,52,-99.99,,,0.00,Acu-Link.com,2013-05-10 23:14:00,
2013-05-10 18:29:00,79.0,60.4,29.73,WNW,292,1.6,-999.0,53,-99.99,,,0.00,Acu-Link.com,2013-05-10 23:29:00,
2013-05-10 18:44:00,78.4,60.9,29.73,West,270,1.6,-999.0,55,-99.99,,,0.00,Acu-Link.com,2013-05-10 23:44:00,
2013-05-10 18:59:00,78.3,59.2,29.73,SSW,202,2.7,-999.0,52,-99.99,,,0.00,Acu-Link.com,2013-05-10 23:59:00,
2013-05-10 19:15:00,78.3,59.2,29.74,SW,225,2.7,-999.0,52,-99.99,,,0.00,Acu-Link.com,2013-05-11 00:15:00,
2013-05-10 19:30:00,77.5,59.0,29.75,NNE,22,3.8,-999.0,53,-99.99,,,0.00,Acu-Link.com,2013-05-11 00:30:00,
2013-05-10 19:45:00,77.0,58.5,29.75,NE,45,6.3,-999.0,53,-99.99,,,0.00,Acu-Link.com,2013-05-11 00:45:00,
2013-05-10 20:00:00,76.5,58.6,29.76,West,270,2.2,-999.0,54,-99.99,,,0.00,Acu-Link.com,2013-05-11 01:00:00,
2013-05-10 20:15:00,75.9,58.1,29.78,NW,315,1.1,-999.0,54,-99.99,,,0.00,Acu-Link.com,2013-05-11 01:15:00,
2013-05-10 20:31:00,75.2,58.4,29.79,SSE,157,0.0,-999.0,56,-99.99,,,0.00,Acu-Link.com,2013-05-11 01:31:00,
2013-05-10 20:46:00,74.8,58.6,29.79,SSW,202,0.0,-999.0,57,-99.99,,,0.00,Acu-Link.com,2013-05-11 01:46:00,
2013-05-10 21:01:00,73.9,58.7,29.80,ESE,112,0.0,-999.0,59,-99.99,,,0.00,Acu-Link.com,2013-05-11 02:01:00,
2013-05-10 21:16:00,73.0,59.7,29.81,ESE,112,0.0,-999.0,63,-99.99,,,0.00,Acu-Link.com,2013-05-11 02:16:00,
2013-05-10 21:31:00,72.5,57.3,29.80,NNE,22,1.6,-999.0,59,-99.99,,,0.00,Acu-Link.com,2013-05-11 02:31:00,
2013-05-10 21:47:00,72.7,58.0,29.81,West,270,1.1,-999.0,60,-99.99,,,0.00,Acu-Link.com,2013-05-11 02:47:00,
2013-05-10 22:02:00,72.3,58.1,29.82,South,180,0.0,-999.0,61,-99.99,,,0.00,Acu-Link.com,2013-05-11 03:02:00,
2013-05-10 22:17:00,71.8,58.0,29.84,NNE,22,0.0,-999.0,62,-99.99,,,0.00,Acu-Link.com,2013-05-11 03:17:00,
2013-05-10 22:32:00,71.4,58.6,29.84,West,270,0.0,-999.0,64,-99.99,,,0.00,Acu-Link.com,2013-05-11 03:32:00,
2013-05-10 22:47:00,70.9,58.1,29.84,West,270,2.2,-999.0,64,-99.99,,,0.00,Acu-Link.com,2013-05-11 03:47:00,
2013-05-10 23:03:00,70.5,57.7,29.85,ENE,67,0.0,-999.0,64,-99.99,,,0.00,Acu-Link.com,2013-05-11 04:03:00,
2013-05-10 23:18:00,69.8,58.8,29.86,WNW,292,0.0,-999.0,68,-99.99,,,0.00,Acu-Link.com,2013-05-11 04:18:00,
2013-05-10 23:33:00,69.6,58.6,29.86,SSW,202,0.0,-999.0,68,-99.99,,,0.00,Acu-Link.com,2013-05-11 04:33:00,
2013-05-10 23:48:00,69.3,58.2,29.86,WNW,292,0.0,-999.0,68,-99.99,,,0.00,Acu-Link.com,2013-05-11 04:48:00,